sensor_id;sensor_type;location;lat;lon;timestamp;P1;durP1;ratioP1;P2;durP2;ratioP2
64018;SDS011;66942;52.138;5.216;2023-06-10T00:02:17;6.6;;;6.2;;
64018;SDS011;66942;52.138;5.216;2023-06-10T00:03:54;7.2;;;6.7;;
64018;SDS011;66942;52.138;5.216;2023-06-10T00:05:30;7.6;;;7.1;;
64018;SDS011;66942;52.138;5.216;2023-06-10T00:07:06;6.9;;;6.5;;
64018;SDS011;66942;52.138;5.216;2023-06-10T00:10:18;6.4;;;5.9;;
64018;SDS011;66942;52.138;5.216;2023-06-10T00:11:55;6.9;;;6.4;;
64018;SDS011;66942;52.138;5.216;2023-06-10T00:13:31;7.0;;;6.5;;
64018;SDS011;66942;52.138;5.216;2023-06-10T00:16:44;6.9;;;6.4;;
64018;SDS011;66942;52.138;5.216;2023-06-10T00:18:20;6.9;;;6.4;;
64018;SDS011;66942;52.138;5.216;2023-06-10T00:19:57;7.3;;;6.7;;
64018;SDS011;66942;52.138;5.216;2023-06-10T00:23:10;6.8;;;6.4;;
64018;SDS011;66942;52.138;5.216;2023-06-10T00:24:46;6.5;;;6.0;;
64018;SDS011;66942;52.138;5.216;2023-06-10T00:26:22;7.2;;;6.7;;
64018;SDS011;66942;52.138;5.216;2023-06-10T00:29:35;7.0;;;6.5;;
64018;SDS011;66942;52.138;5.216;2023-06-10T00:31:11;7.2;;;6.6;;
64018;SDS011;66942;52.138;5.216;2023-06-10T00:32:47;6.6;;;6.2;;
64018;SDS011;66942;52.138;5.216;2023-06-10T00:34:23;6.9;;;6.4;;
64018;SDS011;66942;52.138;5.216;2023-06-10T00:37:35;7.1;;;6.6;;
64018;SDS011;66942;52.138;5.216;2023-06-10T00:39:12;6.8;;;6.4;;
64018;SDS011;66942;52.138;5.216;2023-06-10T00:40:48;6.9;;;6.5;;
64018;SDS011;66942;52.138;5.216;2023-06-10T00:44:00;6.3;;;5.9;;
64018;SDS011;66942;52.138;5.216;2023-06-10T00:45:36;7.9;;;6.5;;
64018;SDS011;66942;52.138;5.216;2023-06-10T00:47:13;6.0;;;5.7;;
64018;SDS011;66942;52.138;5.216;2023-06-10T00:50:26;6.8;;;6.3;;
64018;SDS011;66942;52.138;5.216;2023-06-10T00:52:02;6.5;;;6.0;;
64018;SDS011;66942;52.138;5.216;2023-06-10T00:53:40;6.3;;;5.9;;
64018;SDS011;66942;52.138;5.216;2023-06-10T00:55:17;7.0;;;6.5;;
64018;SDS011;66942;52.138;5.216;2023-06-10T00:58:30;6.4;;;6.0;;
64018;SDS011;66942;52.138;5.216;2023-06-10T01:00:07;6.8;;;6.4;;
64018;SDS011;66942;52.138;5.216;2023-06-10T01:01:43;7.3;;;6.5;;
64018;SDS011;66942;52.138;5.216;2023-06-10T01:04:58;6.9;;;6.4;;
64018;SDS011;66942;52.138;5.216;2023-06-10T01:06:36;6.6;;;6.1;;
64018;SDS011;66942;52.138;5.216;2023-06-10T01:08:24;6.6;;;6.2;;
64018;SDS011;66942;52.138;5.216;2023-06-10T01:10:10;6.7;;;6.1;;
64018;SDS011;66942;52.138;5.216;2023-06-10T01:13:41;6.2;;;5.9;;
64018;SDS011;66942;52.138;5.216;2023-06-10T01:15:21;6.4;;;6.0;;
64018;SDS011;66942;52.138;5.216;2023-06-10T01:16:58;6.5;;;6.2;;
64018;SDS011;66942;52.138;5.216;2023-06-10T01:18:36;5.7;;;5.4;;
64018;SDS011;66942;52.138;5.216;2023-06-10T01:21:48;6.7;;;6.3;;
64018;SDS011;66942;52.138;5.216;2023-06-10T01:23:24;6.4;;;6.0;;
64018;SDS011;66942;52.138;5.216;2023-06-10T01:25:01;6.8;;;6.2;;
64018;SDS011;66942;52.138;5.216;2023-06-10T01:26:37;6.6;;;6.1;;
64018;SDS011;66942;52.138;5.216;2023-06-10T01:29:59;5.8;;;5.5;;
64018;SDS011;66942;52.138;5.216;2023-06-10T01:31:47;6.1;;;5.8;;
64018;SDS011;66942;52.138;5.216;2023-06-10T01:33:27;6.8;;;6.3;;
64018;SDS011;66942;52.138;5.216;2023-06-10T01:35:06;6.9;;;6.4;;
64018;SDS011;66942;52.138;5.216;2023-06-10T01:38:24;6.7;;;6.2;;
64018;SDS011;66942;52.138;5.216;2023-06-10T01:40:03;5.9;;;5.5;;
64018;SDS011;66942;52.138;5.216;2023-06-10T01:41:43;6.2;;;5.9;;
64018;SDS011;66942;52.138;5.216;2023-06-10T01:44:56;6.1;;;5.7;;
64018;SDS011;66942;52.138;5.216;2023-06-10T01:46:32;7.0;;;6.6;;
64018;SDS011;66942;52.138;5.216;2023-06-10T01:48:09;6.4;;;6.0;;
64018;SDS011;66942;52.138;5.216;2023-06-10T01:49:45;6.4;;;5.9;;
64018;SDS011;66942;52.138;5.216;2023-06-10T01:52:58;6.9;;;6.2;;
64018;SDS011;66942;52.138;5.216;2023-06-10T01:54:34;6.9;;;6.3;;
64018;SDS011;66942;52.138;5.216;2023-06-10T01:56:11;6.3;;;5.9;;
64018;SDS011;66942;52.138;5.216;2023-06-10T01:59:23;7.1;;;6.6;;
64018;SDS011;66942;52.138;5.216;2023-06-10T02:00:59;6.3;;;5.8;;
64018;SDS011;66942;52.138;5.216;2023-06-10T02:02:35;6.7;;;6.3;;
64018;SDS011;66942;52.138;5.216;2023-06-10T02:05:48;6.7;;;6.2;;
64018;SDS011;66942;52.138;5.216;2023-06-10T02:07:24;6.9;;;6.4;;
64018;SDS011;66942;52.138;5.216;2023-06-10T02:09:00;6.2;;;5.9;;
64018;SDS011;66942;52.138;5.216;2023-06-10T02:10:36;6.5;;;6.1;;
64018;SDS011;66942;52.138;5.216;2023-06-10T02:13:48;6.2;;;5.7;;
64018;SDS011;66942;52.138;5.216;2023-06-10T02:15:25;6.5;;;6.0;;
64018;SDS011;66942;52.138;5.216;2023-06-10T02:17:01;6.8;;;6.4;;
64018;SDS011;66942;52.138;5.216;2023-06-10T02:20:13;6.3;;;5.9;;
64018;SDS011;66942;52.138;5.216;2023-06-10T02:21:49;5.9;;;5.5;;
64018;SDS011;66942;52.138;5.216;2023-06-10T02:23:25;6.4;;;5.9;;
64018;SDS011;66942;52.138;5.216;2023-06-10T02:26:39;5.7;;;5.3;;
64018;SDS011;66942;52.138;5.216;2023-06-10T02:28:16;6.4;;;6.0;;
64018;SDS011;66942;52.138;5.216;2023-06-10T02:29:52;6.1;;;5.7;;
64018;SDS011;66942;52.138;5.216;2023-06-10T02:31:28;6.5;;;6.0;;
64018;SDS011;66942;52.138;5.216;2023-06-10T02:34:41;7.1;;;6.6;;
64018;SDS011;66942;52.138;5.216;2023-06-10T02:36:17;6.8;;;6.3;;
64018;SDS011;66942;52.138;5.216;2023-06-10T02:37:53;6.0;;;5.6;;
64018;SDS011;66942;52.138;5.216;2023-06-10T02:41:05;6.2;;;5.8;;
64018;SDS011;66942;52.138;5.216;2023-06-10T02:42:41;7.0;;;6.6;;
64018;SDS011;66942;52.138;5.216;2023-06-10T02:44:18;6.5;;;5.9;;
64018;SDS011;66942;52.138;5.216;2023-06-10T02:47:30;5.9;;;5.5;;
64018;SDS011;66942;52.138;5.216;2023-06-10T02:49:06;6.2;;;5.8;;
64018;SDS011;66942;52.138;5.216;2023-06-10T02:50:42;6.2;;;5.8;;
64018;SDS011;66942;52.138;5.216;2023-06-10T02:53:56;6.2;;;5.7;;
64018;SDS011;66942;52.138;5.216;2023-06-10T02:55:32;6.0;;;5.6;;
64018;SDS011;66942;52.138;5.216;2023-06-10T02:57:08;6.5;;;6.1;;
64018;SDS011;66942;52.138;5.216;2023-06-10T02:58:44;6.6;;;6.2;;
64018;SDS011;66942;52.138;5.216;2023-06-10T03:01:56;6.4;;;5.9;;
64018;SDS011;66942;52.138;5.216;2023-06-10T03:03:33;6.5;;;6.1;;
64018;SDS011;66942;52.138;5.216;2023-06-10T03:05:09;5.9;;;5.6;;
64018;SDS011;66942;52.138;5.216;2023-06-10T03:08:21;6.5;;;6.0;;
64018;SDS011;66942;52.138;5.216;2023-06-10T03:09:57;6.9;;;6.4;;
64018;SDS011;66942;52.138;5.216;2023-06-10T03:11:33;6.4;;;6.0;;
64018;SDS011;66942;52.138;5.216;2023-06-10T03:14:46;6.3;;;5.9;;
64018;SDS011;66942;52.138;5.216;2023-06-10T03:16:22;6.7;;;6.3;;
64018;SDS011;66942;52.138;5.216;2023-06-10T03:17:58;6.6;;;6.1;;
64018;SDS011;66942;52.138;5.216;2023-06-10T03:19:34;6.3;;;5.9;;
64018;SDS011;66942;52.138;5.216;2023-06-10T03:22:47;7.0;;;6.4;;
64018;SDS011;66942;52.138;5.216;2023-06-10T03:24:23;7.0;;;6.4;;
64018;SDS011;66942;52.138;5.216;2023-06-10T03:25:59;6.9;;;6.4;;
64018;SDS011;66942;52.138;5.216;2023-06-10T03:29:11;6.7;;;6.3;;
64018;SDS011;66942;52.138;5.216;2023-06-10T03:30:48;6.8;;;6.3;;
64018;SDS011;66942;52.138;5.216;2023-06-10T03:32:24;7.1;;;6.6;;
64018;SDS011;66942;52.138;5.216;2023-06-10T03:35:36;6.8;;;6.2;;
64018;SDS011;66942;52.138;5.216;2023-06-10T03:37:12;6.6;;;6.0;;
64018;SDS011;66942;52.138;5.216;2023-06-10T03:38:48;7.1;;;6.6;;
64018;SDS011;66942;52.138;5.216;2023-06-10T03:42:01;7.0;;;6.5;;
64018;SDS011;66942;52.138;5.216;2023-06-10T03:43:37;6.7;;;6.2;;
64018;SDS011;66942;52.138;5.216;2023-06-10T03:45:13;6.8;;;6.3;;
64018;SDS011;66942;52.138;5.216;2023-06-10T03:46:49;6.7;;;6.3;;
64018;SDS011;66942;52.138;5.216;2023-06-10T03:50:02;7.2;;;6.7;;
64018;SDS011;66942;52.138;5.216;2023-06-10T03:51:38;7.7;;;7.1;;
64018;SDS011;66942;52.138;5.216;2023-06-10T03:53:14;7.2;;;6.6;;
64018;SDS011;66942;52.138;5.216;2023-06-10T03:56:26;7.3;;;6.8;;
64018;SDS011;66942;52.138;5.216;2023-06-10T03:58:03;6.9;;;6.4;;
64018;SDS011;66942;52.138;5.216;2023-06-10T03:59:39;6.9;;;6.3;;
64018;SDS011;66942;52.138;5.216;2023-06-10T04:02:51;7.1;;;6.6;;
64018;SDS011;66942;52.138;5.216;2023-06-10T04:04:27;7.5;;;7.0;;
64018;SDS011;66942;52.138;5.216;2023-06-10T04:06:03;6.7;;;6.2;;
64018;SDS011;66942;52.138;5.216;2023-06-10T04:09:16;7.5;;;7.0;;
64018;SDS011;66942;52.138;5.216;2023-06-10T04:10:52;7.8;;;7.1;;
64018;SDS011;66942;52.138;5.216;2023-06-10T04:12:28;7.0;;;6.5;;
64018;SDS011;66942;52.138;5.216;2023-06-10T04:14:04;6.9;;;6.4;;
64018;SDS011;66942;52.138;5.216;2023-06-10T04:17:16;7.7;;;7.2;;
64018;SDS011;66942;52.138;5.216;2023-06-10T04:18:53;7.5;;;6.9;;
64018;SDS011;66942;52.138;5.216;2023-06-10T04:20:29;7.4;;;6.8;;
64018;SDS011;66942;52.138;5.216;2023-06-10T04:23:41;7.2;;;6.7;;
64018;SDS011;66942;52.138;5.216;2023-06-10T04:25:17;7.2;;;6.7;;
64018;SDS011;66942;52.138;5.216;2023-06-10T04:26:54;7.3;;;6.8;;
64018;SDS011;66942;52.138;5.216;2023-06-10T04:30:06;7.7;;;7.0;;
64018;SDS011;66942;52.138;5.216;2023-06-10T04:31:42;7.5;;;7.0;;
64018;SDS011;66942;52.138;5.216;2023-06-10T04:33:18;7.6;;;6.9;;
64018;SDS011;66942;52.138;5.216;2023-06-10T04:34:54;8.2;;;7.4;;
64018;SDS011;66942;52.138;5.216;2023-06-10T04:38:07;7.5;;;6.8;;
64018;SDS011;66942;52.138;5.216;2023-06-10T04:39:43;7.6;;;7.1;;
64018;SDS011;66942;52.138;5.216;2023-06-10T04:41:19;7.4;;;6.8;;
64018;SDS011;66942;52.138;5.216;2023-06-10T04:44:31;6.8;;;6.4;;
64018;SDS011;66942;52.138;5.216;2023-06-10T04:46:08;7.3;;;6.8;;
64018;SDS011;66942;52.138;5.216;2023-06-10T04:47:44;7.4;;;6.8;;
64018;SDS011;66942;52.138;5.216;2023-06-10T04:50:57;7.2;;;6.6;;
64018;SDS011;66942;52.138;5.216;2023-06-10T04:52:34;6.8;;;6.3;;
64018;SDS011;66942;52.138;5.216;2023-06-10T04:54:11;7.1;;;6.6;;
64018;SDS011;66942;52.138;5.216;2023-06-10T04:57:23;7.0;;;6.6;;
64018;SDS011;66942;52.138;5.216;2023-06-10T04:58:59;7.1;;;6.6;;
64018;SDS011;66942;52.138;5.216;2023-06-10T05:00:35;7.5;;;7.0;;
64018;SDS011;66942;52.138;5.216;2023-06-10T05:02:11;7.9;;;7.3;;
64018;SDS011;66942;52.138;5.216;2023-06-10T05:05:24;7.3;;;6.7;;
64018;SDS011;66942;52.138;5.216;2023-06-10T05:07:00;7.9;;;7.3;;
64018;SDS011;66942;52.138;5.216;2023-06-10T05:08:36;6.9;;;6.3;;
64018;SDS011;66942;52.138;5.216;2023-06-10T05:11:48;8.0;;;7.2;;
64018;SDS011;66942;52.138;5.216;2023-06-10T05:13:24;6.9;;;6.4;;
64018;SDS011;66942;52.138;5.216;2023-06-10T05:15:01;7.4;;;6.8;;
64018;SDS011;66942;52.138;5.216;2023-06-10T05:18:13;7.4;;;6.8;;
64018;SDS011;66942;52.138;5.216;2023-06-10T05:19:49;7.3;;;6.8;;
64018;SDS011;66942;52.138;5.216;2023-06-10T05:21:25;7.4;;;6.8;;
64018;SDS011;66942;52.138;5.216;2023-06-10T05:23:01;7.7;;;7.1;;
64018;SDS011;66942;52.138;5.216;2023-06-10T05:26:14;7.0;;;6.6;;
64018;SDS011;66942;52.138;5.216;2023-06-10T05:27:50;6.8;;;6.3;;
64018;SDS011;66942;52.138;5.216;2023-06-10T05:29:26;7.3;;;6.8;;
64018;SDS011;66942;52.138;5.216;2023-06-10T05:32:38;6.9;;;6.4;;
64018;SDS011;66942;52.138;5.216;2023-06-10T05:34:15;7.3;;;6.6;;
64018;SDS011;66942;52.138;5.216;2023-06-10T05:35:51;7.0;;;6.4;;
64018;SDS011;66942;52.138;5.216;2023-06-10T05:39:03;6.9;;;6.4;;
64018;SDS011;66942;52.138;5.216;2023-06-10T05:40:39;7.3;;;6.6;;
64018;SDS011;66942;52.138;5.216;2023-06-10T05:42:16;7.1;;;6.6;;
64018;SDS011;66942;52.138;5.216;2023-06-10T05:45:27;8.1;;;7.3;;
64018;SDS011;66942;52.138;5.216;2023-06-10T05:47:03;7.3;;;6.8;;
64018;SDS011;66942;52.138;5.216;2023-06-10T05:48:40;7.5;;;6.8;;
64018;SDS011;66942;52.138;5.216;2023-06-10T05:50:17;6.9;;;6.3;;
64018;SDS011;66942;52.138;5.216;2023-06-10T05:53:29;7.1;;;6.6;;
64018;SDS011;66942;52.138;5.216;2023-06-10T05:55:05;7.3;;;6.6;;
64018;SDS011;66942;52.138;5.216;2023-06-10T05:56:42;7.0;;;6.5;;
64018;SDS011;66942;52.138;5.216;2023-06-10T05:59:55;6.8;;;6.3;;
64018;SDS011;66942;52.138;5.216;2023-06-10T06:01:32;9.0;;;6.6;;
64018;SDS011;66942;52.138;5.216;2023-06-10T06:03:08;7.9;;;7.1;;
64018;SDS011;66942;52.138;5.216;2023-06-10T06:06:21;7.0;;;6.3;;
64018;SDS011;66942;52.138;5.216;2023-06-10T06:07:57;7.1;;;6.5;;
64018;SDS011;66942;52.138;5.216;2023-06-10T06:09:34;6.6;;;6.1;;
64018;SDS011;66942;52.138;5.216;2023-06-10T06:11:10;7.3;;;6.6;;
64018;SDS011;66942;52.138;5.216;2023-06-10T06:14:22;6.9;;;6.3;;
64018;SDS011;66942;52.138;5.216;2023-06-10T06:15:58;9.9;;;7.2;;
64018;SDS011;66942;52.138;5.216;2023-06-10T06:17:34;6.7;;;6.2;;
64018;SDS011;66942;52.138;5.216;2023-06-10T06:20:47;6.8;;;6.2;;
64018;SDS011;66942;52.138;5.216;2023-06-10T06:22:23;7.3;;;6.5;;
64018;SDS011;66942;52.138;5.216;2023-06-10T06:23:59;7.0;;;6.3;;
64018;SDS011;66942;52.138;5.216;2023-06-10T06:27:11;7.0;;;6.5;;
64018;SDS011;66942;52.138;5.216;2023-06-10T06:28:47;7.1;;;6.6;;
64018;SDS011;66942;52.138;5.216;2023-06-10T06:30:24;7.1;;;6.5;;
64018;SDS011;66942;52.138;5.216;2023-06-10T06:33:36;7.3;;;6.4;;
64018;SDS011;66942;52.138;5.216;2023-06-10T06:35:12;6.7;;;6.1;;
64018;SDS011;66942;52.138;5.216;2023-06-10T06:36:48;6.8;;;6.2;;
64018;SDS011;66942;52.138;5.216;2023-06-10T06:38:24;7.3;;;6.7;;
64018;SDS011;66942;52.138;5.216;2023-06-10T06:41:37;6.6;;;6.2;;
64018;SDS011;66942;52.138;5.216;2023-06-10T06:43:13;7.1;;;6.2;;
64018;SDS011;66942;52.138;5.216;2023-06-10T06:44:49;7.0;;;6.4;;
64018;SDS011;66942;52.138;5.216;2023-06-10T06:48:02;6.6;;;6.0;;
64018;SDS011;66942;52.138;5.216;2023-06-10T06:49:38;6.4;;;5.9;;
64018;SDS011;66942;52.138;5.216;2023-06-10T06:51:14;6.7;;;6.1;;
64018;SDS011;66942;52.138;5.216;2023-06-10T06:54:26;6.1;;;5.6;;
64018;SDS011;66942;52.138;5.216;2023-06-10T06:56:02;6.5;;;6.0;;
64018;SDS011;66942;52.138;5.216;2023-06-10T06:57:39;6.6;;;6.1;;
64018;SDS011;66942;52.138;5.216;2023-06-10T06:59:15;6.9;;;6.4;;
64018;SDS011;66942;52.138;5.216;2023-06-10T07:02:27;6.5;;;6.0;;
64018;SDS011;66942;52.138;5.216;2023-06-10T07:04:03;6.4;;;5.8;;
64018;SDS011;66942;52.138;5.216;2023-06-10T07:05:39;6.0;;;5.4;;
64018;SDS011;66942;52.138;5.216;2023-06-10T07:08:52;7.1;;;6.4;;
64018;SDS011;66942;52.138;5.216;2023-06-10T07:10:28;6.9;;;6.2;;
64018;SDS011;66942;52.138;5.216;2023-06-10T07:12:05;6.3;;;5.9;;
64018;SDS011;66942;52.138;5.216;2023-06-10T07:15:18;6.6;;;6.0;;
64018;SDS011;66942;52.138;5.216;2023-06-10T07:16:54;5.9;;;5.4;;
64018;SDS011;66942;52.138;5.216;2023-06-10T07:18:30;6.2;;;5.6;;
64018;SDS011;66942;52.138;5.216;2023-06-10T07:21:43;5.9;;;5.4;;
64018;SDS011;66942;52.138;5.216;2023-06-10T07:23:19;6.1;;;5.6;;
64018;SDS011;66942;52.138;5.216;2023-06-10T07:24:56;6.5;;;6.0;;
64018;SDS011;66942;52.138;5.216;2023-06-10T07:26:33;5.9;;;5.5;;
64018;SDS011;66942;52.138;5.216;2023-06-10T07:29:45;6.9;;;6.3;;
64018;SDS011;66942;52.138;5.216;2023-06-10T07:31:22;6.5;;;5.9;;
64018;SDS011;66942;52.138;5.216;2023-06-10T07:32:58;6.0;;;5.5;;
64018;SDS011;66942;52.138;5.216;2023-06-10T07:36:11;6.3;;;5.8;;
64018;SDS011;66942;52.138;5.216;2023-06-10T07:37:47;6.1;;;5.6;;
64018;SDS011;66942;52.138;5.216;2023-06-10T07:39:23;6.2;;;5.7;;
64018;SDS011;66942;52.138;5.216;2023-06-10T07:42:35;5.6;;;5.2;;
64018;SDS011;66942;52.138;5.216;2023-06-10T07:44:12;6.2;;;5.7;;
64018;SDS011;66942;52.138;5.216;2023-06-10T07:45:48;6.4;;;5.9;;
64018;SDS011;66942;52.138;5.216;2023-06-10T07:47:24;6.1;;;5.5;;
64018;SDS011;66942;52.138;5.216;2023-06-10T07:50:36;6.1;;;5.5;;
64018;SDS011;66942;52.138;5.216;2023-06-10T07:52:13;5.7;;;5.3;;
64018;SDS011;66942;52.138;5.216;2023-06-10T07:53:49;6.2;;;5.7;;
64018;SDS011;66942;52.138;5.216;2023-06-10T07:57:01;5.9;;;5.4;;
64018;SDS011;66942;52.138;5.216;2023-06-10T07:58:37;6.4;;;5.8;;
64018;SDS011;66942;52.138;5.216;2023-06-10T08:00:14;5.9;;;5.2;;
64018;SDS011;66942;52.138;5.216;2023-06-10T08:03:27;5.7;;;5.2;;
64018;SDS011;66942;52.138;5.216;2023-06-10T08:05:03;5.3;;;4.8;;
64018;SDS011;66942;52.138;5.216;2023-06-10T08:06:40;6.0;;;5.0;;
64018;SDS011;66942;52.138;5.216;2023-06-10T08:08:16;8.4;;;5.0;;
64018;SDS011;66942;52.138;5.216;2023-06-10T08:11:29;5.6;;;5.2;;
64018;SDS011;66942;52.138;5.216;2023-06-10T08:13:05;5.8;;;5.3;;
64018;SDS011;66942;52.138;5.216;2023-06-10T08:14:41;5.7;;;5.0;;
64018;SDS011;66942;52.138;5.216;2023-06-10T08:17:53;5.9;;;5.4;;
64018;SDS011;66942;52.138;5.216;2023-06-10T08:19:29;6.0;;;4.91;;
64018;SDS011;66942;52.138;5.216;2023-06-10T08:21:06;5.3;;;4.91;;
64018;SDS011;66942;52.138;5.216;2023-06-10T08:24:18;5.2;;;4.7;;
64018;SDS011;66942;52.138;5.216;2023-06-10T08:25:54;5.3;;;4.8;;
64018;SDS011;66942;52.138;5.216;2023-06-10T08:27:30;4.61;;;4.2;;
64018;SDS011;66942;52.138;5.216;2023-06-10T08:30:42;5.3;;;4.91;;
64018;SDS011;66942;52.138;5.216;2023-06-10T08:32:19;5.5;;;5.0;;
64018;SDS011;66942;52.138;5.216;2023-06-10T08:33:55;5.2;;;4.7;;
64018;SDS011;66942;52.138;5.216;2023-06-10T08:35:31;5.5;;;5.0;;
64018;SDS011;66942;52.138;5.216;2023-06-10T08:38:43;5.2;;;4.7;;
64018;SDS011;66942;52.138;5.216;2023-06-10T08:40:20;5.9;;;5.11;;
64018;SDS011;66942;52.138;5.216;2023-06-10T08:41:58;6.3;;;5.3;;
64018;SDS011;66942;52.138;5.216;2023-06-10T08:45:45;7.3;;;5.4;;
64018;SDS011;66942;52.138;5.216;2023-06-10T08:47:24;6.3;;;4.91;;
64018;SDS011;66942;52.138;5.216;2023-06-10T08:49:01;5.6;;;4.8;;
64018;SDS011;66942;52.138;5.216;2023-06-10T08:50:41;5.4;;;4.91;;
64018;SDS011;66942;52.138;5.216;2023-06-10T08:52:18;5.11;;;4.7;;
64018;SDS011;66942;52.138;5.216;2023-06-10T08:55:38;5.4;;;4.91;;
64018;SDS011;66942;52.138;5.216;2023-06-10T08:57:17;5.4;;;4.91;;
64018;SDS011;66942;52.138;5.216;2023-06-10T08:58:53;5.7;;;5.2;;
64018;SDS011;66942;52.138;5.216;2023-06-10T09:02:08;5.5;;;5.0;;
64018;SDS011;66942;52.138;5.216;2023-06-10T09:03:45;5.7;;;5.3;;
64018;SDS011;66942;52.138;5.216;2023-06-10T09:05:21;5.0;;;4.61;;
64018;SDS011;66942;52.138;5.216;2023-06-10T09:06:57;5.0;;;4.7;;
64018;SDS011;66942;52.138;5.216;2023-06-10T09:10:11;5.3;;;4.8;;
64018;SDS011;66942;52.138;5.216;2023-06-10T09:11:48;5.4;;;4.91;;
64018;SDS011;66942;52.138;5.216;2023-06-10T09:13:24;5.3;;;4.8;;
64018;SDS011;66942;52.138;5.216;2023-06-10T09:16:37;5.3;;;4.7;;
64018;SDS011;66942;52.138;5.216;2023-06-10T09:18:13;5.0;;;4.5;;
64018;SDS011;66942;52.138;5.216;2023-06-10T09:19:50;4.61;;;4.2;;
64018;SDS011;66942;52.138;5.216;2023-06-10T09:23:04;5.0;;;4.61;;
64018;SDS011;66942;52.138;5.216;2023-06-10T09:24:41;5.11;;;4.61;;
64018;SDS011;66942;52.138;5.216;2023-06-10T09:26:17;5.2;;;4.41;;
64018;SDS011;66942;52.138;5.216;2023-06-10T09:27:54;4.91;;;4.5;;
64018;SDS011;66942;52.138;5.216;2023-06-10T09:31:07;4.8;;;4.5;;
64018;SDS011;66942;52.138;5.216;2023-06-10T09:32:43;5.2;;;4.7;;
64018;SDS011;66942;52.138;5.216;2023-06-10T09:34:20;4.91;;;4.5;;
64018;SDS011;66942;52.138;5.216;2023-06-10T09:37:38;4.8;;;4.5;;
64018;SDS011;66942;52.138;5.216;2023-06-10T09:39:14;4.91;;;4.41;;
64018;SDS011;66942;52.138;5.216;2023-06-10T09:40:52;5.0;;;4.5;;
64018;SDS011;66942;52.138;5.216;2023-06-10T09:42:32;4.8;;;4.41;;
64018;SDS011;66942;52.138;5.216;2023-06-10T09:45:48;5.3;;;4.41;;
64018;SDS011;66942;52.138;5.216;2023-06-10T09:47:25;4.7;;;4.3;;
64018;SDS011;66942;52.138;5.216;2023-06-10T09:49:02;5.3;;;4.8;;
64018;SDS011;66942;52.138;5.216;2023-06-10T09:52:20;5.8;;;4.41;;
64018;SDS011;66942;52.138;5.216;2023-06-10T09:53:57;4.7;;;4.3;;
64018;SDS011;66942;52.138;5.216;2023-06-10T09:55:35;5.0;;;4.3;;
64018;SDS011;66942;52.138;5.216;2023-06-10T09:57:13;4.91;;;4.5;;
64018;SDS011;66942;52.138;5.216;2023-06-10T10:00:31;4.7;;;4.3;;
64018;SDS011;66942;52.138;5.216;2023-06-10T10:02:12;4.8;;;4.41;;
64018;SDS011;66942;52.138;5.216;2023-06-10T10:03:50;5.4;;;4.61;;
64018;SDS011;66942;52.138;5.216;2023-06-10T10:05:27;6.2;;;4.41;;
64018;SDS011;66942;52.138;5.216;2023-06-10T10:08:40;4.8;;;4.3;;
64018;SDS011;66942;52.138;5.216;2023-06-10T10:10:18;4.91;;;4.5;;
64018;SDS011;66942;52.138;5.216;2023-06-10T10:11:55;4.0;;;3.7;;
64018;SDS011;66942;52.138;5.216;2023-06-10T10:15:11;4.7;;;4.3;;
64018;SDS011;66942;52.138;5.216;2023-06-10T10:16:47;4.61;;;4.2;;
64018;SDS011;66942;52.138;5.216;2023-06-10T10:18:25;4.5;;;4.2;;
64018;SDS011;66942;52.138;5.216;2023-06-10T10:20:06;4.41;;;4.0;;
64018;SDS011;66942;52.138;5.216;2023-06-10T10:23:29;4.8;;;4.41;;
64018;SDS011;66942;52.138;5.216;2023-06-10T10:25:22;4.61;;;4.2;;
64018;SDS011;66942;52.138;5.216;2023-06-10T10:27:01;4.5;;;4.2;;
64018;SDS011;66942;52.138;5.216;2023-06-10T10:28:47;4.61;;;4.1;;
64018;SDS011;66942;52.138;5.216;2023-06-10T10:30:45;4.7;;;4.3;;
64018;SDS011;66942;52.138;5.216;2023-06-10T10:34:15;4.3;;;3.9;;
64018;SDS011;66942;52.138;5.216;2023-06-10T10:35:55;4.5;;;4.1;;
64018;SDS011;66942;52.138;5.216;2023-06-10T10:37:33;4.0;;;3.8;;
64018;SDS011;66942;52.138;5.216;2023-06-10T10:39:11;4.3;;;3.9;;
64018;SDS011;66942;52.138;5.216;2023-06-10T10:42:25;4.7;;;4.2;;
64018;SDS011;66942;52.138;5.216;2023-06-10T10:44:03;4.5;;;4.1;;
64018;SDS011;66942;52.138;5.216;2023-06-10T10:45:40;4.7;;;4.3;;
64018;SDS011;66942;52.138;5.216;2023-06-10T10:47:16;4.41;;;4.1;;
64018;SDS011;66942;52.138;5.216;2023-06-10T10:50:36;4.2;;;3.8;;
64018;SDS011;66942;52.138;5.216;2023-06-10T10:52:12;4.5;;;4.1;;
64018;SDS011;66942;52.138;5.216;2023-06-10T10:54:09;4.1;;;3.7;;
64018;SDS011;66942;52.138;5.216;2023-06-10T10:56:04;4.1;;;3.7;;
64018;SDS011;66942;52.138;5.216;2023-06-10T10:59:19;3.9;;;3.6;;
64018;SDS011;66942;52.138;5.216;2023-06-10T11:00:55;4.3;;;4.0;;
64018;SDS011;66942;52.138;5.216;2023-06-10T11:02:32;4.0;;;3.7;;
64018;SDS011;66942;52.138;5.216;2023-06-10T11:04:17;4.3;;;3.9;;
64018;SDS011;66942;52.138;5.216;2023-06-10T11:07:33;4.61;;;3.9;;
64018;SDS011;66942;52.138;5.216;2023-06-10T11:09:26;4.7;;;3.9;;
64018;SDS011;66942;52.138;5.216;2023-06-10T11:11:17;4.1;;;3.8;;
64018;SDS011;66942;52.138;5.216;2023-06-10T11:12:54;4.3;;;3.7;;
64018;SDS011;66942;52.138;5.216;2023-06-10T11:14:33;4.2;;;3.8;;
64018;SDS011;66942;52.138;5.216;2023-06-10T11:18:06;4.3;;;4.0;;
64018;SDS011;66942;52.138;5.216;2023-06-10T11:19:43;4.2;;;3.9;;
64018;SDS011;66942;52.138;5.216;2023-06-10T11:21:20;4.41;;;4.0;;
64018;SDS011;66942;52.138;5.216;2023-06-10T11:23:00;4.5;;;4.1;;
64018;SDS011;66942;52.138;5.216;2023-06-10T11:26:29;4.0;;;3.7;;
64018;SDS011;66942;52.138;5.216;2023-06-10T11:28:17;5.7;;;4.0;;
64018;SDS011;66942;52.138;5.216;2023-06-10T11:29:56;4.3;;;4.0;;
64018;SDS011;66942;52.138;5.216;2023-06-10T11:31:38;4.2;;;3.9;;
64018;SDS011;66942;52.138;5.216;2023-06-10T11:33:18;3.9;;;3.7;;
64018;SDS011;66942;52.138;5.216;2023-06-10T11:36:32;4.1;;;3.8;;
64018;SDS011;66942;52.138;5.216;2023-06-10T11:38:10;4.3;;;4.0;;
64018;SDS011;66942;52.138;5.216;2023-06-10T11:39:46;4.3;;;3.9;;
64018;SDS011;66942;52.138;5.216;2023-06-10T11:42:59;4.2;;;3.8;;
64018;SDS011;66942;52.138;5.216;2023-06-10T11:44:35;4.5;;;4.2;;
64018;SDS011;66942;52.138;5.216;2023-06-10T11:46:12;4.1;;;3.8;;
64018;SDS011;66942;52.138;5.216;2023-06-10T11:49:33;4.2;;;3.9;;
64018;SDS011;66942;52.138;5.216;2023-06-10T11:51:09;4.91;;;4.5;;
64018;SDS011;66942;52.138;5.216;2023-06-10T11:52:45;4.3;;;4.0;;
64018;SDS011;66942;52.138;5.216;2023-06-10T11:54:21;4.2;;;3.9;;
64018;SDS011;66942;52.138;5.216;2023-06-10T11:57:34;4.5;;;4.1;;
64018;SDS011;66942;52.138;5.216;2023-06-10T11:59:10;4.61;;;4.1;;
64018;SDS011;66942;52.138;5.216;2023-06-10T12:00:46;4.41;;;4.0;;
64018;SDS011;66942;52.138;5.216;2023-06-10T12:04:01;4.7;;;4.3;;
64018;SDS011;66942;52.138;5.216;2023-06-10T12:05:39;4.2;;;3.8;;
64018;SDS011;66942;52.138;5.216;2023-06-10T12:07:17;4.5;;;4.1;;
64018;SDS011;66942;52.138;5.216;2023-06-10T12:08:53;4.7;;;4.3;;
64018;SDS011;66942;52.138;5.216;2023-06-10T12:12:06;4.5;;;4.2;;
64018;SDS011;66942;52.138;5.216;2023-06-10T12:13:45;4.41;;;4.1;;
64018;SDS011;66942;52.138;5.216;2023-06-10T12:15:24;5.4;;;3.8;;
64018;SDS011;66942;52.138;5.216;2023-06-10T12:18:36;4.7;;;4.41;;
64018;SDS011;66942;52.138;5.216;2023-06-10T12:20:23;4.61;;;4.3;;
64018;SDS011;66942;52.138;5.216;2023-06-10T12:22:02;4.61;;;4.2;;
64018;SDS011;66942;52.138;5.216;2023-06-10T12:23:38;4.3;;;4.0;;
64018;SDS011;66942;52.138;5.216;2023-06-10T12:26:53;4.8;;;4.41;;
64018;SDS011;66942;52.138;5.216;2023-06-10T12:28:30;4.41;;;4.1;;
64018;SDS011;66942;52.138;5.216;2023-06-10T12:30:07;4.41;;;4.1;;
64018;SDS011;66942;52.138;5.216;2023-06-10T12:33:38;4.5;;;4.2;;
64018;SDS011;66942;52.138;5.216;2023-06-10T12:35:16;4.91;;;4.41;;
64018;SDS011;66942;52.138;5.216;2023-06-10T12:36:53;4.8;;;4.41;;
64018;SDS011;66942;52.138;5.216;2023-06-10T12:38:29;4.61;;;4.2;;
64018;SDS011;66942;52.138;5.216;2023-06-10T12:41:46;4.3;;;3.9;;
64018;SDS011;66942;52.138;5.216;2023-06-10T12:43:23;4.3;;;4.1;;
64018;SDS011;66942;52.138;5.216;2023-06-10T12:44:59;4.3;;;4.0;;
64018;SDS011;66942;52.138;5.216;2023-06-10T12:46:36;4.5;;;4.2;;
64018;SDS011;66942;52.138;5.216;2023-06-10T12:49:54;4.61;;;4.2;;
64018;SDS011;66942;52.138;5.216;2023-06-10T12:51:31;4.5;;;4.1;;
64018;SDS011;66942;52.138;5.216;2023-06-10T12:53:07;4.5;;;4.1;;
64018;SDS011;66942;52.138;5.216;2023-06-10T12:56:20;4.7;;;4.41;;
64018;SDS011;66942;52.138;5.216;2023-06-10T12:57:56;4.7;;;4.3;;